Time;durP1;ratioP1;P1;durP2;ratioP2;P2;SDS_P1;SDS_P2;PMS_P1;PMS_P2;Temp;Humidity;BMP_temperature;BMP_pressure;BME280_temperature;BME280_humidity;BME280_pressure;Samples;Min_cycle;Max_cycle;Signal;HPM_P1;HPM_P2
2023/06/30 00:01:48;;;;;;;0.40;0.40;;;;;;;;;;4972476;28;20195;-86
2023/06/30 00:04:19;;;;;;;0.40;0.40;;;;;;;;;;4972734;28;20294;-86
2023/06/30 00:06:49;;;;;;;0.50;0.50;;;;;;;;;;4972068;28;20202;-86
2023/06/30 00:09:18;;;;;;;0.40;0.40;;;;;;;;;;4972383;28;20202;-86
2023/06/30 00:11:51;;;;;;;0.40;0.40;;;;;;;;;;4972263;28;20211;-85
2023/06/30 00:14:19;;;;;;;0.40;0.40;;;;;;;;;;4971827;28;20214;-86
2023/06/30 00:16:49;;;;;;;0.40;0.40;;;;;;;;;;4972534;28;20243;-86
2023/06/30 00:19:19;;;;;;;0.40;0.40;;;;;;;;;;4972264;28;20219;-86
2023/06/30 00:21:52;;;;;;;0.60;0.60;;;;;;;;;;4971863;28;20221;-86
2023/06/30 00:24:20;;;;;;;0.40;0.40;;;;;;;;;;4972597;28;20211;-86
2023/06/30 00:26:50;;;;;;;0.40;0.40;;;;;;;;;;4972756;28;20203;-86
2023/06/30 00:29:19;;;;;;;0.40;0.40;;;;;;;;;;4972708;28;20210;-86
2023/06/30 00:31:48;;;;;;;0.40;0.40;;;;;;;;;;4971588;28;20206;-86
2023/06/30 00:34:16;;;;;;;0.40;0.40;;;;;;;;;;4972191;28;20207;-86
2023/06/30 00:36:46;;;;;;;0.40;0.40;;;;;;;;;;4972502;28;20217;-86
2023/06/30 00:39:15;;;;;;;0.60;0.60;;;;;;;;;;4972154;28;20219;-86
2023/06/30 00:41:43;;;;;;;0.40;0.40;;;;;;;;;;4971641;28;20260;-86
2023/06/30 00:44:12;;;;;;;0.40;0.40;;;;;;;;;;4972067;28;20215;-86
2023/06/30 00:46:43;;;;;;;0.50;0.50;;;;;;;;;;4972191;28;20207;-86
2023/06/30 00:49:12;;;;;;;0.47;0.47;;;;;;;;;;4971575;28;20262;-86
2023/06/30 00:51:43;;;;;;;2.30;1.03;;;;;;;;;;4972156;28;20244;-86
2023/06/30 00:54:16;;;;;;;0.40;0.40;;;;;;;;;;4971851;28;20202;-86
2023/06/30 00:56:45;;;;;;;0.40;0.40;;;;;;;;;;4971356;28;20255;-86
2023/06/30 00:59:15;;;;;;;0.50;0.50;;;;;;;;;;4971983;28;20238;-86
2023/06/30 01:01:47;;;;;;;0.40;0.40;;;;;;;;;;4971933;28;20302;-86
2023/06/30 01:04:19;;;;;;;0.40;0.40;;;;;;;;;;4972063;28;20239;-86
2023/06/30 01:06:53;;;;;;;0.40;0.40;;;;;;;;;;4970867;28;20208;-86
2023/06/30 01:09:28;;;;;;;0.40;0.40;;;;;;;;;;4971858;28;20265;-86
2023/06/30 01:11:57;;;;;;;0.40;0.40;;;;;;;;;;4971453;28;20203;-86
2023/06/30 01:14:25;;;;;;;3.50;1.03;;;;;;;;;;4971527;28;20208;-86
2023/06/30 01:16:57;;;;;;;3.10;1.53;;;;;;;;;;4971808;28;20213;-86
2023/06/30 01:19:28;;;;;;;0.50;0.50;;;;;;;;;;4971263;28;20209;-86
2023/06/30 01:22:01;;;;;;;0.80;0.80;;;;;;;;;;4971144;28;20205;-86
2023/06/30 01:24:34;;;;;;;4.37;1.47;;;;;;;;;;4971282;28;20366;-86
2023/06/30 01:27:03;;;;;;;0.70;0.70;;;;;;;;;;4971641;28;20205;-86
2023/06/30 01:29:32;;;;;;;0.60;0.60;;;;;;;;;;4971137;28;20254;-86
2023/06/30 01:32:01;;;;;;;0.87;0.80;;;;;;;;;;4971203;28;20214;-86
2023/06/30 01:34:29;;;;;;;0.93;0.77;;;;;;;;;;4970919;28;20211;-86
2023/06/30 01:36:57;;;;;;;0.60;0.60;;;;;;;;;;4971153;28;20206;-86
2023/06/30 01:39:26;;;;;;;0.40;0.40;;;;;;;;;;4971585;28;20207;-86
2023/06/30 01:41:56;;;;;;;0.60;0.60;;;;;;;;;;4970701;28;20228;-86
2023/06/30 01:44:24;;;;;;;0.60;0.60;;;;;;;;;;4970811;28;20197;-86
2023/06/30 01:46:53;;;;;;;0.40;0.40;;;;;;;;;;4971552;28;20203;-86
2023/06/30 01:49:21;;;;;;;0.57;0.57;;;;;;;;;;4970317;28;20221;-86
2023/06/30 01:51:50;;;;;;;0.70;0.70;;;;;;;;;;4971054;28;20237;-86
2023/06/30 01:54:18;;;;;;;0.40;0.40;;;;;;;;;;4970639;28;20210;-86
2023/06/30 01:56:49;;;;;;;1.40;0.73;;;;;;;;;;4970762;28;20242;-85
2023/06/30 01:59:19;;;;;;;1.80;0.93;;;;;;;;;;4970051;28;20207;-85
2023/06/30 02:01:48;;;;;;;0.77;0.77;;;;;;;;;;4970514;28;20239;-85
2023/06/30 02:04:17;;;;;;;0.70;0.70;;;;;;;;;;4970431;28;20209;-86
2023/06/30 02:06:45;;;;;;;0.50;0.50;;;;;;;;;;4970329;28;20201;-86
2023/06/30 02:09:14;;;;;;;0.70;0.70;;;;;;;;;;4970562;28;20213;-86
2023/06/30 02:11:44;;;;;;;2.10;1.37;;;;;;;;;;4970612;28;20204;-86
2023/06/30 02:14:12;;;;;;;0.40;0.40;;;;;;;;;;4970412;28;20215;-86
2023/06/30 02:16:42;;;;;;;0.50;0.50;;;;;;;;;;4969977;28;20304;-85
2023/06/30 02:19:13;;;;;;;0.50;0.50;;;;;;;;;;4969788;28;20214;-86
2023/06/30 02:21:41;;;;;;;0.53;0.53;;;;;;;;;;4970417;28;20218;-86
2023/06/30 02:24:10;;;;;;;1.10;1.03;;;;;;;;;;4969775;28;20203;-86
2023/06/30 02:26:38;;;;;;;4.07;0.90;;;;;;;;;;4970402;28;20207;-86
2023/06/30 02:29:10;;;;;;;0.60;0.60;;;;;;;;;;4970446;28;20227;-86
2023/06/30 02:31:38;;;;;;;0.63;0.63;;;;;;;;;;4970439;28;20208;-86
2023/06/30 02:34:08;;;;;;;1.10;1.00;;;;;;;;;;4970138;28;20225;-86
2023/06/30 02:36:37;;;;;;;0.50;0.50;;;;;;;;;;4970668;28;20199;-86
2023/06/30 02:39:05;;;;;;;0.90;0.90;;;;;;;;;;4970311;28;20230;-85
2023/06/30 02:41:34;;;;;;;0.70;0.70;;;;;;;;;;4969759;28;20225;-86
2023/06/30 02:44:02;;;;;;;4.13;0.93;;;;;;;;;;4970031;28;20210;-86
2023/06/30 02:46:31;;;;;;;0.40;0.40;;;;;;;;;;4970232;28;20272;-85
2023/06/30 02:49:00;;;;;;;2.20;1.33;;;;;;;;;;4970083;28;20208;-86
2023/06/30 02:51:30;;;;;;;0.40;0.40;;;;;;;;;;4969895;28;20207;-86
2023/06/30 02:53:58;;;;;;;0.57;0.57;;;;;;;;;;4970075;28;20216;-86
2023/06/30 02:56:27;;;;;;;0.70;0.70;;;;;;;;;;4970625;28;20227;-86
2023/06/30 02:58:55;;;;;;;3.07;2.87;;;;;;;;;;4969792;28;20202;-86
2023/06/30 03:01:24;;;;;;;0.53;0.53;;;;;;;;;;4970590;28;20226;-86
2023/06/30 03:03:53;;;;;;;0.60;0.60;;;;;;;;;;4970056;28;20204;-86
2023/06/30 03:06:23;;;;;;;1.27;1.03;;;;;;;;;;4970039;28;20303;-86
2023/06/30 03:08:53;;;;;;;1.60;0.93;;;;;;;;;;4969790;28;20212;-86
2023/06/30 03:11:21;;;;;;;0.97;0.97;;;;;;;;;;4970069;28;20212;-86
2023/06/30 03:13:51;;;;;;;0.60;0.60;;;;;;;;;;4970137;28;20239;-86
2023/06/30 03:16:19;;;;;;;1.13;1.13;;;;;;;;;;4969824;28;20281;-86
2023/06/30 03:18:51;;;;;;;2.73;1.53;;;;;;;;;;4970179;28;20213;-86
2023/06/30 03:21:19;;;;;;;0.50;0.50;;;;;;;;;;4970120;28;20224;-86
2023/06/30 03:23:48;;;;;;;0.97;0.87;;;;;;;;;;4969715;28;20199;-86
2023/06/30 03:26:17;;;;;;;2.67;0.90;;;;;;;;;;4970185;28;20235;-86
2023/06/30 03:28:46;;;;;;;0.93;0.93;;;;;;;;;;4970897;28;20232;-86
2023/06/30 03:31:14;;;;;;;0.43;0.43;;;;;;;;;;4973403;28;20208;-85
2023/06/30 03:33:43;;;;;;;7.90;1.17;;;;;;;;;;4973022;28;20215;-86
2023/06/30 03:36:12;;;;;;;3.90;1.43;;;;;;;;;;4972832;28;20207;-86
2023/06/30 03:38:41;;;;;;;0.73;0.73;;;;;;;;;;4972845;28;20262;-86
2023/06/30 03:41:09;;;;;;;0.50;0.50;;;;;;;;;;4972186;28;20223;-86
2023/06/30 03:43:39;;;;;;;0.40;0.40;;;;;;;;;;4972571;28;20215;-86
2023/06/30 03:46:09;;;;;;;0.40;0.40;;;;;;;;;;4972650;28;20264;-86
2023/06/30 03:48:38;;;;;;;0.40;0.40;;;;;;;;;;4972957;28;20230;-86
2023/06/30 03:51:06;;;;;;;0.40;0.40;;;;;;;;;;4972254;28;20199;-85
2023/06/30 03:53:35;;;;;;;0.57;0.57;;;;;;;;;;4973065;28;20199;-86
2023/06/30 03:56:03;;;;;;;0.40;0.40;;;;;;;;;;4972094;28;20203;-86
2023/06/30 03:58:32;;;;;;;0.70;0.70;;;;;;;;;;4972277;28;20236;-86
2023/06/30 04:01:02;;;;;;;0.40;0.40;;;;;;;;;;4972272;28;20290;-86
2023/06/30 04:03:31;;;;;;;0.40;0.40;;;;;;;;;;4973052;28;20207;-86
2023/06/30 04:06:00;;;;;;;0.40;0.40;;;;;;;;;;4972601;28;20196;-85
2023/06/30 04:08:29;;;;;;;0.40;0.40;;;;;;;;;;4972279;28;20204;-86
2023/06/30 04:10:57;;;;;;;0.40;0.40;;;;;;;;;;4972195;28;20268;-85
2023/06/30 04:13:26;;;;;;;0.60;0.60;;;;;;;;;;4972790;28;20218;-86
2023/06/30 04:15:54;;;;;;;0.40;0.40;;;;;;;;;;4971587;28;20212;-85
2023/06/30 04:18:24;;;;;;;0.40;0.40;;;;;;;;;;4972379;28;20200;-86
2023/06/30 04:20:53;;;;;;;0.40;0.40;;;;;;;;;;4972418;28;20267;-86
2023/06/30 04:23:21;;;;;;;2.27;1.83;;;;;;;;;;4972114;28;20234;-86
2023/06/30 04:25:50;;;;;;;0.67;0.67;;;;;;;;;;4971882;28;20214;-86
2023/06/30 04:28:19;;;;;;;0.60;0.60;;;;;;;;;;4972719;28;20219;-86
2023/06/30 04:30:49;;;;;;;0.60;0.60;;;;;;;;;;4972562;28;20208;-86
2023/06/30 04:33:18;;;;;;;0.70;0.70;;;;;;;;;;4972487;28;20204;-86
2023/06/30 04:35:48;;;;;;;0.40;0.40;;;;;;;;;;4971708;28;20208;-86
2023/06/30 04:38:19;;;;;;;1.40;1.30;;;;;;;;;;4972852;28;20253;-86
2023/06/30 04:40:50;;;;;;;0.80;0.80;;;;;;;;;;4971251;28;20207;-86
2023/06/30 04:43:19;;;;;;;4.43;1.23;;;;;;;;;;4971469;28;20220;-86
2023/06/30 04:45:48;;;;;;;1.03;0.83;;;;;;;;;;4972338;28;20204;-86
2023/06/30 04:48:16;;;;;;;1.57;1.47;;;;;;;;;;4971683;28;20212;-85
2023/06/30 04:50:45;;;;;;;0.60;0.60;;;;;;;;;;4971658;28;20222;-85
2023/06/30 04:53:15;;;;;;;0.90;0.90;;;;;;;;;;4971830;28;20209;-86
2023/06/30 04:55:43;;;;;;;2.60;1.00;;;;;;;;;;4971844;28;20210;-85
2023/06/30 04:58:12;;;;;;;0.70;0.70;;;;;;;;;;4971842;28;20238;-85
2023/06/30 05:00:42;;;;;;;5.43;2.70;;;;;;;;;;4971400;28;20204;-85
2023/06/30 05:03:11;;;;;;;0.80;0.80;;;;;;;;;;4971681;28;20227;-85
2023/06/30 05:05:40;;;;;;;0.90;0.90;;;;;;;;;;4971499;28;20268;-85
2023/06/30 05:08:08;;;;;;;0.63;0.63;;;;;;;;;;4971580;28;20200;-85
2023/06/30 05:10:38;;;;;;;0.40;0.40;;;;;;;;;;4971159;28;20218;-85
2023/06/30 05:13:07;;;;;;;0.63;0.63;;;;;;;;;;4972086;28;20209;-86
2023/06/30 05:15:35;;;;;;;0.40;0.40;;;;;;;;;;4971826;28;20205;-85
2023/06/30 05:18:05;;;;;;;1.10;1.07;;;;;;;;;;4971267;28;20311;-85
2023/06/30 05:20:36;;;;;;;0.77;0.77;;;;;;;;;;4971750;28;20219;-84
2023/06/30 05:23:04;;;;;;;0.97;0.97;;;;;;;;;;4971202;28;20300;-85
2023/06/30 05:25:35;;;;;;;0.70;0.70;;;;;;;;;;4971393;28;20220;-86
2023/06/30 05:28:05;;;;;;;0.73;0.73;;;;;;;;;;4971319;28;20234;-84
2023/06/30 05:30:34;;;;;;;0.60;0.60;;;;;;;;;;4972130;28;20209;-86
2023/06/30 05:33:02;;;;;;;0.40;0.40;;;;;;;;;;4972147;28;20211;-87
2023/06/30 05:35:31;;;;;;;0.40;0.40;;;;;;;;;;4972006;28;20240;-86
2023/06/30 05:37:59;;;;;;;0.70;0.70;;;;;;;;;;4972528;28;20223;-87
2023/06/30 05:40:28;;;;;;;1.20;1.20;;;;;;;;;;4972263;28;20197;-86
2023/06/30 05:42:56;;;;;;;0.63;0.63;;;;;;;;;;4971486;28;20240;-86
2023/06/30 05:45:26;;;;;;;1.13;1.13;;;;;;;;;;4971951;28;20211;-86
2023/06/30 05:47:55;;;;;;;0.73;0.73;;;;;;;;;;4971687;28;20216;-86
2023/06/30 05:50:26;;;;;;;3.27;1.00;;;;;;;;;;4971494;28;20205;-86
2023/06/30 05:52:55;;;;;;;1.10;0.93;;;;;;;;;;4970593;28;20215;-86
2023/06/30 05:55:23;;;;;;;0.57;0.57;;;;;;;;;;4971100;28;20231;-86
2023/06/30 05:57:52;;;;;;;1.80;1.70;;;;;;;;;;4970637;28;20255;-87
2023/06/30 06:00:21;;;;;;;1.43;0.97;;;;;;;;;;4970660;28;20197;-87
2023/06/30 06:02:51;;;;;;;0.50;0.50;;;;;;;;;;4970383;28;20308;-87
2023/06/30 06:05:20;;;;;;;3.40;1.87;;;;;;;;;;4971240;28;20208;-86
2023/06/30 06:07:49;;;;;;;1.30;1.20;;;;;;;;;;4970694;28;20201;-87
2023/06/30 06:10:18;;;;;;;3.00;0.77;;;;;;;;;;4970245;28;20205;-86
2023/06/30 06:12:46;;;;;;;0.63;0.63;;;;;;;;;;4970878;28;20204;-87
2023/06/30 06:15:15;;;;;;;1.80;1.37;;;;;;;;;;4970844;28;20205;-86
2023/06/30 06:17:43;;;;;;;0.73;0.73;;;;;;;;;;4970163;28;20205;-86
2023/06/30 06:20:13;;;;;;;1.30;1.20;;;;;;;;;;4970079;28;20197;-86
2023/06/30 06:22:42;;;;;;;4.40;2.97;;;;;;;;;;4970484;28;20224;-86
2023/06/30 06:25:11;;;;;;;1.50;0.87;;;;;;;;;;4970507;28;20283;-86
2023/06/30 06:27:40;;;;;;;0.60;0.60;;;;;;;;;;4969795;28;20224;-83
2023/06/30 06:30:09;;;;;;;0.90;0.77;;;;;;;;;;4970584;28;20205;-83
2023/06/30 06:32:37;;;;;;;1.17;1.00;;;;;;;;;;4970406;28;20203;-84
2023/06/30 06:35:06;;;;;;;2.30;1.30;;;;;;;;;;4969799;28;20274;-83
2023/06/30 06:37:36;;;;;;;1.77;0.77;;;;;;;;;;4970178;28;20203;-84
2023/06/30 06:40:05;;;;;;;1.33;1.20;;;;;;;;;;4970301;28;20201;-84
2023/06/30 06:42:34;;;;;;;4.53;1.30;;;;;;;;;;4970184;28;20239;-83
2023/06/30 06:45:03;;;;;;;3.10;1.30;;;;;;;;;;4969917;28;20201;-83
2023/06/30 06:47:50;;;;;;;1.10;1.00;;;;;;;;;;4970317;28;20208;-84
2023/06/30 06:50:19;;;;;;;1.47;0.60;;;;;;;;;;4970284;28;20236;-84
2023/06/30 06:52:49;;;;;;;0.70;0.70;;;;;;;;;;4969521;28;20205;-83
2023/06/30 06:55:19;;;;;;;1.00;1.00;;;;;;;;;;4970315;28;20205;-84
2023/06/30 06:57:48;;;;;;;0.90;0.90;;;;;;;;;;4969449;28;20236;-83
2023/06/30 07:00:17;;;;;;;1.93;0.83;;;;;;;;;;4969885;28;20202;-83
2023/06/30 07:02:46;;;;;;;0.67;0.67;;;;;;;;;;4969174;28;20212;-84
2023/06/30 07:05:15;;;;;;;1.60;1.50;;;;;;;;;;4972517;28;20195;-84
2023/06/30 07:07:43;;;;;;;0.40;0.40;;;;;;;;;;4973390;28;20204;-84
2023/06/30 07:10:13;;;;;;;1.17;0.97;;;;;;;;;;4972921;28;20301;-84
2023/06/30 07:12:42;;;;;;;1.23;1.10;;;;;;;;;;4973067;28;20202;-84
2023/06/30 07:15:10;;;;;;;0.97;0.97;;;;;;;;;;4973110;28;20305;-83
2023/06/30 07:17:39;;;;;;;0.80;0.80;;;;;;;;;;4973382;28;20228;-86
2023/06/30 07:20:08;;;;;;;0.67;0.67;;;;;;;;;;4972924;28;20238;-86
2023/06/30 07:22:37;;;;;;;2.50;1.20;;;;;;;;;;4973574;28;20201;-86
2023/06/30 07:25:06;;;;;;;1.57;1.47;;;;;;;;;;4973123;28;20260;-86
2023/06/30 07:27:38;;;;;;;2.07;1.37;;;;;;;;;;4972721;28;20217;-86
2023/06/30 07:30:07;;;;;;;9.53;1.70;;;;;;;;;;4972814;28;20255;-86
2023/06/30 07:32:38;;;;;;;4.93;2.80;;;;;;;;;;4972999;28;20234;-86
2023/06/30 07:35:07;;;;;;;0.57;0.57;;;;;;;;;;4972570;28;20291;-86
2023/06/30 07:37:35;;;;;;;10.33;1.80;;;;;;;;;;4973074;28;20204;-86
2023/06/30 07:40:05;;;;;;;1.03;0.97;;;;;;;;;;4972784;28;20245;-86
2023/06/30 07:42:41;;;;;;;0.60;0.60;;;;;;;;;;4972969;28;20197;-86
2023/06/30 07:45:10;;;;;;;4.00;1.93;;;;;;;;;;4972331;28;20248;-86
2023/06/30 07:47:40;;;;;;;0.90;0.90;;;;;;;;;;4973580;28;20201;-86
2023/06/30 07:50:11;;;;;;;0.80;0.80;;;;;;;;;;4973041;28;20212;-85
2023/06/30 07:52:42;;;;;;;1.03;0.90;;;;;;;;;;4972819;28;20268;-85
2023/06/30 07:55:12;;;;;;;1.97;1.47;;;;;;;;;;4972154;28;20204;-86
2023/06/30 07:57:43;;;;;;;0.60;0.60;;;;;;;;;;4972734;28;20278;-84
2023/06/30 08:00:15;;;;;;;2.47;1.20;;;;;;;;;;4972795;28;20258;-86
2023/06/30 08:02:43;;;;;;;0.80;0.80;;;;;;;;;;4972363;28;20271;-86
2023/06/30 08:05:12;;;;;;;1.40;1.30;;;;;;;;;;4972457;28;20229;-85
2023/06/30 08:07:41;;;;;;;2.10;1.47;;;;;;;;;;4972943;28;20209;-85
2023/06/30 08:10:17;;;;;;;6.03;0.90;;;;;;;;;;4972734;28;20231;-85
2023/06/30 08:12:47;;;;;;;0.87;0.87;;;;;;;;;;4972713;28;20222;-85
2023/06/30 08:15:15;;;;;;;2.50;1.23;;;;;;;;;;4971609;28;20209;-85
2023/06/30 08:17:47;;;;;;;2.47;1.37;;;;;;;;;;4973119;28;20202;-85
2023/06/30 08:20:25;;;;;;;2.13;0.97;;;;;;;;;;4972792;28;20204;-85
2023/06/30 08:22:55;;;;;;;4.37;1.50;;;;;;;;;;4972760;28;20268;-85
2023/06/30 08:25:24;;;;;;;1.47;1.00;;;;;;;;;;4973155;28;20224;-85
2023/06/30 08:27:54;;;;;;;2.87;1.20;;;;;;;;;;4972439;28;20232;-85
2023/06/30 08:30:22;;;;;;;1.97;1.30;;;;;;;;;;4972484;28;20208;-85
2023/06/30 08:32:54;;;;;;;4.97;1.43;;;;;;;;;;4973221;28;20204;-85
2023/06/30 08:35:25;;;;;;;3.50;1.87;;;;;;;;;;4972602;28;20198;-86
2023/06/30 08:37:53;;;;;;;2.87;1.90;;;;;;;;;;4972847;28;20232;-85
2023/06/30 08:40:25;;;;;;;1.43;1.33;;;;;;;;;;4972564;28;20204;-85
2023/06/30 08:42:56;;;;;;;1.43;1.20;;;;;;;;;;4972983;28;20293;-85
2023/06/30 08:45:26;;;;;;;7.00;1.60;;;;;;;;;;4971966;28;20248;-85
2023/06/30 08:47:55;;;;;;;0.57;0.57;;;;;;;;;;4972924;28;20212;-85
2023/06/30 08:50:24;;;;;;;0.93;0.93;;;;;;;;;;4974574;28;20204;-85
2023/06/30 08:52:53;;;;;;;2.07;1.20;;;;;;;;;;4973472;28;20205;-85
2023/06/30 08:55:22;;;;;;;1.00;1.00;;;;;;;;;;4971591;28;20204;-85
2023/06/30 08:57:51;;;;;;;1.47;1.13;;;;;;;;;;4972062;28;20287;-85
2023/06/30 09:00:21;;;;;;;1.23;1.13;;;;;;;;;;4972430;28;20212;-85
2023/06/30 09:02:50;;;;;;;0.40;0.40;;;;;;;;;;4971577;28;20282;-84
2023/06/30 09:05:19;;;;;;;2.20;2.00;;;;;;;;;;4971331;28;20227;-85
2023/06/30 09:07:52;;;;;;;0.53;0.53;;;;;;;;;;4972013;28;20296;-84
2023/06/30 09:10:21;;;;;;;1.37;1.27;;;;;;;;;;4971807;28;20232;-85
2023/06/30 09:12:54;;;;;;;5.03;2.43;;;;;;;;;;4972006;28;20209;-85
2023/06/30 09:15:24;;;;;;;1.83;1.50;;;;;;;;;;4971811;28;20210;-85
2023/06/30 09:17:53;;;;;;;2.53;1.03;;;;;;;;;;4971741;28;20297;-85
2023/06/30 09:20:22;;;;;;;2.73;0.70;;;;;;;;;;4970577;28;20210;-85
2023/06/30 09:22:51;;;;;;;0.83;0.83;;;;;;;;;;4971836;28;20235;-85
2023/06/30 09:25:43;;;;;;;0.80;0.80;;;;;;;;;;4970956;28;20265;-85
2023/06/30 09:28:14;;;;;;;1.03;0.93;;;;;;;;;;4970628;28;20230;-86
2023/06/30 09:30:46;;;;;;;1.60;1.47;;;;;;;;;;4971528;28;20208;-86
2023/06/30 09:33:16;;;;;;;1.20;1.10;;;;;;;;;;4971592;28;20242;-85
2023/06/30 09:35:45;;;;;;;1.10;0.90;;;;;;;;;;4971147;28;20200;-86
2023/06/30 09:38:17;;;;;;;3.70;2.27;;;;;;;;;;4970801;28;20218;-86
2023/06/30 09:40:47;;;;;;;1.20;0.90;;;;;;;;;;4971176;28;20212;-86
2023/06/30 09:43:19;;;;;;;0.87;0.87;;;;;;;;;;4971026;28;20292;-86
2023/06/30 09:45:54;;;;;;;2.10;1.00;;;;;;;;;;4970239;28;20219;-86
2023/06/30 09:48:23;;;;;;;1.33;1.23;;;;;;;;;;4971173;28;20204;-86
2023/06/30 09:50:53;;;;;;;7.53;1.83;;;;;;;;;;4971139;28;20201;-86
2023/06/30 09:53:22;;;;;;;0.93;0.93;;;;;;;;;;4971189;28;20319;-86
2023/06/30 09:55:53;;;;;;;0.90;0.90;;;;;;;;;;4970592;28;20213;-84
2023/06/30 09:58:24;;;;;;;1.23;1.23;;;;;;;;;;4970233;28;20237;-84
2023/06/30 10:00:54;;;;;;;0.73;0.73;;;;;;;;;;4971022;28;20208;-84
2023/06/30 10:03:23;;;;;;;1.27;1.17;;;;;;;;;;4970277;28;20209;-84
2023/06/30 10:05:53;;;;;;;1.70;0.93;;;;;;;;;;4969829;28;20285;-84
2023/06/30 10:08:23;;;;;;;1.10;0.93;;;;;;;;;;4970810;28;20202;-84
2023/06/30 10:10:54;;;;;;;0.77;0.40;;;;;;;;;;4970484;28;20234;-84
2023/06/30 10:13:23;;;;;;;1.53;1.43;;;;;;;;;;4970205;28;20218;-84
2023/06/30 10:15:57;;;;;;;5.97;2.40;;;;;;;;;;4970494;28;20212;-82
2023/06/30 10:18:26;;;;;;;6.27;1.37;;;;;;;;;;4970535;28;20208;-84
2023/06/30 10:20:55;;;;;;;1.90;1.80;;;;;;;;;;4969924;28;20233;-85
2023/06/30 10:23:24;;;;;;;2.03;1.00;;;;;;;;;;4970302;28;20211;-84
2023/06/30 10:25:53;;;;;;;1.03;0.97;;;;;;;;;;4970298;28;20219;-85
2023/06/30 10:28:22;;;;;;;0.73;0.73;;;;;;;;;;4970481;28;20224;-84
2023/06/30 10:30:51;;;;;;;1.37;1.27;;;;;;;;;;4970113;28;20212;-84
2023/06/30 10:33:21;;;;;;;2.57;2.00;;;;;;;;;;4970448;28;20201;-84
2023/06/30 10:35:50;;;;;;;0.40;0.40;;;;;;;;;;4970576;28;20205;-86
2023/06/30 10:38:19;;;;;;;3.23;1.53;;;;;;;;;;4969998;28;20208;-86
2023/06/30 10:40:48;;;;;;;1.10;0.93;;;;;;;;;;4975101;28;20208;-87
2023/06/30 10:43:19;;;;;;;1.90;1.40;;;;;;;;;;4975072;28;20208;-86
2023/06/30 10:46:07;;;;;;;0.90;0.90;;;;;;;;;;4975439;28;20230;-86
2023/06/30 10:48:42;;;;;;;2.63;0.90;;;;;;;;;;4974705;28;20242;-86
2023/06/30 10:51:13;;;;;;;1.83;1.70;;;;;;;;;;4975373;28;20217;-87
2023/06/30 10:53:44;;;;;;;1.03;1.03;;;;;;;;;;4977214;28;20209;-86
2023/06/30 10:56:13;;;;;;;4.40;1.67;;;;;;;;;;4977679;28;20214;-86
2023/06/30 10:58:43;;;;;;;1.67;1.57;;;;;;;;;;4978167;28;20306;-86
2023/06/30 11:01:15;;;;;;;1.70;1.60;;;;;;;;;;4978603;28;20271;-86
2023/06/30 11:04:02;;;;;;;1.13;1.07;;;;;;;;;;4975111;28;20214;-85
2023/06/30 11:06:36;;;;;;;1.50;1.30;;;;;;;;;;4977585;28;20217;-87
2023/06/30 11:09:10;;;;;;;0.90;0.90;;;;;;;;;;4982702;28;20206;-87
2023/06/30 11:11:53;;;;;;;0.80;0.80;;;;;;;;;;4979717;28;20211;-87
2023/06/30 11:14:34;;;;;;;1.90;1.57;;;;;;;;;;4979458;28;20211;-86
2023/06/30 11:17:03;;;;;;;0.60;0.60;;;;;;;;;;4979176;28;20201;-85
2023/06/30 11:19:32;;;;;;;1.30;1.10;;;;;;;;;;4981857;28;20208;-86
2023/06/30 11:22:19;;;;;;;1.43;1.33;;;;;;;;;;4981270;28;20304;-87
2023/06/30 11:24:52;;;;;;;2.00;1.30;;;;;;;;;;4981510;28;20205;-85
2023/06/30 11:27:21;;;;;;;3.73;1.80;;;;;;;;;;4981854;28;20241;-85
2023/06/30 11:29:50;;;;;;;2.67;1.20;;;;;;;;;;4980484;28;20205;-86
2023/06/30 11:32:19;;;;;;;5.17;1.90;;;;;;;;;;4975032;28;20202;-86
2023/06/30 11:34:49;;;;;;;1.17;0.93;;;;;;;;;;4974778;28;20262;-86
2023/06/30 11:37:18;;;;;;;1.70;1.60;;;;;;;;;;4973945;28;20294;-85
2023/06/30 11:39:52;;;;;;;1.37;1.27;;;;;;;;;;4973375;28;20205;-85
2023/06/30 11:42:21;;;;;;;1.17;1.07;;;;;;;;;;4973763;28;20300;-85
2023/06/30 11:44:50;;;;;;;2.83;1.27;;;;;;;;;;4973859;28;20201;-84
2023/06/30 11:47:19;;;;;;;1.33;1.07;;;;;;;;;;4973188;28;20329;-84
2023/06/30 11:49:51;;;;;;;4.80;2.47;;;;;;;;;;4973867;28;20202;-85
2023/06/30 11:52:20;;;;;;;3.13;2.27;;;;;;;;;;4973493;28;20213;-85
2023/06/30 11:54:48;;;;;;;2.40;1.37;;;;;;;;;;4973101;28;20265;-85
2023/06/30 11:57:18;;;;;;;3.30;1.33;;;;;;;;;;4972949;28;20292;-84
2023/06/30 11:59:49;;;;;;;2.80;1.53;;;;;;;;;;4973798;28;20202;-85
2023/06/30 12:02:20;;;;;;;1.73;1.40;;;;;;;;;;4972823;28;20205;-84
2023/06/30 12:04:50;;;;;;;0.83;0.83;;;;;;;;;;4972939;28;20209;-85
2023/06/30 12:07:19;;;;;;;1.10;1.00;;;;;;;;;;4973135;28;20248;-85
2023/06/30 12:10:00;;;;;;;2.07;1.40;;;;;;;;;;4973598;28;20206;-85
2023/06/30 12:12:30;;;;;;;0.90;0.90;;;;;;;;;;4972812;28;20191;-84
2023/06/30 12:14:58;;;;;;;1.30;1.00;;;;;;;;;;4972525;28;20205;-84
2023/06/30 12:17:28;;;;;;;8.37;1.57;;;;;;;;;;4972001;28;20228;-84
2023/06/30 12:19:57;;;;;;;3.10;1.57;;;;;;;;;;4972355;28;20212;-84
2023/06/30 12:22:27;;;;;;;4.30;1.40;;;;;;;;;;4971787;28;20244;-82
2023/06/30 12:24:56;;;;;;;1.67;1.30;;;;;;;;;;4971754;28;20207;-83
2023/06/30 12:27:26;;;;;;;1.60;1.50;;;;;;;;;;4971968;28;20237;-84
2023/06/30 12:29:56;;;;;;;5.87;4.37;;;;;;;;;;4972374;28;20233;-85
2023/06/30 12:32:27;;;;;;;1.33;1.17;;;;;;;;;;4972439;28;20206;-85
2023/06/30 12:35:00;;;;;;;6.10;2.90;;;;;;;;;;4972712;28;20206;-87
2023/06/30 12:37:31;;;;;;;5.00;1.57;;;;;;;;;;4972126;28;20256;-87
2023/06/30 12:40:00;;;;;;;1.73;1.63;;;;;;;;;;4971691;28;20247;-87
2023/06/30 12:42:31;;;;;;;5.73;2.63;;;;;;;;;;4972500;28;20217;-86
2023/06/30 12:45:05;;;;;;;7.50;1.87;;;;;;;;;;4972323;28;20211;-86
2023/06/30 12:47:34;;;;;;;4.10;1.70;;;;;;;;;;4971855;28;20374;-87
2023/06/30 12:50:06;;;;;;;2.60;1.57;;;;;;;;;;4972102;28;20236;-86
2023/06/30 12:52:35;;;;;;;5.53;1.83;;;;;;;;;;4972002;28;20300;-87
2023/06/30 12:55:04;;;;;;;7.03;3.67;;;;;;;;;;4971793;28;20201;-87
2023/06/30 12:57:33;;;;;;;4.53;3.03;;;;;;;;;;4971490;28;20225;-86
2023/06/30 13:00:06;;;;;;;3.50;2.27;;;;;;;;;;4971911;28;20208;-86
2023/06/30 13:02:34;;;;;;;4.70;2.80;;;;;;;;;;4971020;28;20235;-86
2023/06/30 13:05:05;;;;;;;4.20;2.10;;;;;;;;;;4971337;28;20204;-87
2023/06/30 13:07:33;;;;;;;1.67;1.57;;;;;;;;;;4971235;28;20225;-87
2023/06/30 13:10:03;;;;;;;3.70;2.00;;;;;;;;;;4971579;28;20201;-87
2023/06/30 13:12:39;;;;;;;1.87;1.73;;;;;;;;;;4971592;28;20203;-87
2023/06/30 13:15:10;;;;;;;2.47;2.30;;;;;;;;;;4970918;28;20198;-87
2023/06/30 13:17:38;;;;;;;1.83;1.70;;;;;;;;;;4971821;28;20201;-87
2023/06/30 13:20:08;;;;;;;5.27;1.73;;;;;;;;;;4970824;28;20198;-87
2023/06/30 13:22:37;;;;;;;2.83;1.60;;;;;;;;;;4971372;28;20211;-87
2023/06/30 13:25:25;;;;;;;2.23;1.37;;;;;;;;;;4971274;28;20202;-87
2023/06/30 13:27:54;;;;;;;6.23;2.30;;;;;;;;;;4971171;28;20236;-87
2023/06/30 13:30:26;;;;;;;8.43;3.50;;;;;;;;;;4971021;28;20265;-87
2023/06/30 13:32:55;;;;;;;4.53;2.33;;;;;;;;;;4970731;28;20302;-86
2023/06/30 13:35:24;;;;;;;1.60;1.50;;;;;;;;;;4970896;28;20210;-85
2023/06/30 13:37:52;;;;;;;2.73;1.60;;;;;;;;;;4971536;28;20223;-85
2023/06/30 13:40:21;;;;;;;2.63;1.73;;;;;;;;;;4970278;28;20277;-86
2023/06/30 13:42:49;;;;;;;2.17;1.57;;;;;;;;;;4971077;28;20262;-86
2023/06/30 13:45:19;;;;;;;2.73;1.97;;;;;;;;;;4970985;28;20203;-86
2023/06/30 13:47:49;;;;;;;1.93;1.80;;;;;;;;;;4970899;28;20217;-85
2023/06/30 13:50:18;;;;;;;2.87;1.50;;;;;;;;;;4970074;28;20207;-86
2023/06/30 13:52:47;;;;;;;1.30;1.20;;;;;;;;;;4971328;28;20292;-86
2023/06/30 13:55:16;;;;;;;4.37;2.20;;;;;;;;;;4971110;28;20218;-86
2023/06/30 13:57:44;;;;;;;5.17;2.43;;;;;;;;;;4970285;28;20241;-86
2023/06/30 14:00:13;;;;;;;6.87;2.20;;;;;;;;;;4970919;28;20207;-86
2023/06/30 14:02:42;;;;;;;6.90;2.17;;;;;;;;;;4971101;28;20211;-86
2023/06/30 14:05:14;;;;;;;6.30;1.93;;;;;;;;;;4970424;28;20307;-86
2023/06/30 14:07:43;;;;;;;8.00;2.23;;;;;;;;;;4970690;28;20316;-87
2023/06/30 14:10:12;;;;;;;1.97;1.63;;;;;;;;;;4971288;28;20304;-87
2023/06/30 14:12:41;;;;;;;7.93;1.33;;;;;;;;;;4971170;28;20213;-87
2023/06/30 14:15:10;;;;;;;0.60;0.60;;;;;;;;;;4970866;28;20208;-88
2023/06/30 14:17:39;;;;;;;3.27;1.63;;;;;;;;;;4970661;28;20207;-87
2023/06/30 14:20:08;;;;;;;2.93;2.00;;;;;;;;;;4970798;28;20215;-87
2023/06/30 14:22:38;;;;;;;5.73;1.57;;;;;;;;;;4970387;28;20212;-86
2023/06/30 14:25:06;;;;;;;3.97;1.50;;;;;;;;;;4970202;28;20263;-87
2023/06/30 14:27:35;;;;;;;1.20;1.13;;;;;;;;;;4970253;28;20261;-87
2023/06/30 14:30:04;;;;;;;4.60;1.47;;;;;;;;;;4970512;28;20202;-86
2023/06/30 14:32:32;;;;;;;4.23;1.70;;;;;;;;;;4970516;28;20206;-85
2023/06/30 14:35:03;;;;;;;2.70;1.50;;;;;;;;;;4970280;28;20255;-86
2023/06/30 14:37:31;;;;;;;1.43;1.33;;;;;;;;;;4970806;28;20202;-86
2023/06/30 14:40:02;;;;;;;4.87;2.70;;;;;;;;;;4971158;28;20203;-86
2023/06/30 14:42:31;;;;;;;2.80;1.90;;;;;;;;;;4970300;28;20224;-86
2023/06/30 14:45:02;;;;;;;6.07;2.67;;;;;;;;;;4970611;28;20219;-86
2023/06/30 14:47:31;;;;;;;4.30;2.13;;;;;;;;;;4970924;28;20218;-86
2023/06/30 14:49:59;;;;;;;1.30;0.97;;;;;;;;;;4970617;28;20236;-86
2023/06/30 14:52:28;;;;;;;2.13;1.67;;;;;;;;;;4970906;28;20209;-86
2023/06/30 14:54:56;;;;;;;2.53;1.40;;;;;;;;;;4970965;28;20217;-85
2023/06/30 14:57:26;;;;;;;2.70;1.40;;;;;;;;;;4970539;28;20229;-85
2023/06/30 14:59:55;;;;;;;1.60;1.50;;;;;;;;;;4970536;28;20216;-86